Terminal Aerodrome Forecast
Issued by NWS

Home | Current Version | Previous Version | Graphics & Text | Print | Product List | Glossary On
Versions: 1 2 3 4 5 6 7 8 9 10 11 12 13 14 15 16 17 18 19 20 21 22 23 24 25 26 27 28
000
FTUS43 KICT 192232 AAC
TAFCNU
TAF AMD
KCNU 192232Z 1923/2018 07009KT P6SM -RA OVC025
      TEMPO 1923/2003 4SM RA
     FM200900 01013G19KT 5SM RA OVC008
     FM201200 01013G19KT P6SM OVC007=

USA.gov is the U.S. government's official web portal to all federal, state and local government web resources and services.